Denmark, New York
Current Conditions -  °F | °C
As of 10:58 AM on Thursday 23 Oct 2014 (Local Time) from KGTB Reporting Station
Few Clouds Few Clouds  
Wind Chill: 41°   Ceiling: Unl
Heat Index: 47°   Visibility: 10mi
Dew Point: 36°   Wind: 18mph
Humidity: 63%   Direction: 30°NNE
Pressure: 30"   Gusts: NA
Location:  43.89°N, 75.56°W
Report Text: KGTB 231458Z AUTO 03016KT 10SM FEW024 09/02 A3000 RMK AO2 SLP162 6//// T00860020 CHINO RWY21
Loading
Personal Weather Stations






























Interactive Weather Map
Tropical Storm Tracking
New forecast layout! Learn more

10-Day Weather Forecast

Advertisements
Track Severe Weather on mobile